sensor_id;sensor_type;location;lat;lon;timestamp;pressure;altitude;pressure_sealevel;temperature;humidity
57821;BME280;43649;49.474;8.466;2022-09-09T00:00:16;99880.41;;;17.29;83.34
57821;BME280;43649;49.474;8.466;2022-09-09T00:02:46;99948.84;;;17.54;83.87
57821;BME280;43649;49.474;8.466;2022-09-09T00:05:22;99873.75;;;17.03;84.60
57821;BME280;43649;49.474;8.466;2022-09-09T00:07:59;99924.59;;;17.31;85.16
57821;BME280;43649;49.474;8.466;2022-09-09T00:10:29;99890.03;;;16.96;86.30
57821;BME280;43649;49.474;8.466;2022-09-09T00:13:01;99887.47;;;16.88;87.34
57821;BME280;43649;49.474;8.466;2022-09-09T00:15:36;99879.13;;;16.96;87.04
57821;BME280;43649;49.474;8.466;2022-09-09T00:18:11;99892.03;;;17.16;86.69
57821;BME280;43649;49.474;8.466;2022-09-09T00:20:44;99867.03;;;16.99;85.75
57821;BME280;43649;49.474;8.466;2022-09-09T00:23:18;99885.13;;;17.13;85.63
57821;BME280;43649;49.474;8.466;2022-09-09T00:25:49;99860.28;;;16.95;86.36
57821;BME280;43649;49.474;8.466;2022-09-09T00:28:20;99838.84;;;16.85;86.89
57821;BME280;43649;49.474;8.466;2022-09-09T00:30:55;99883.47;;;17.19;86.43
57821;BME280;43649;49.474;8.466;2022-09-09T00:33:33;99889.19;;;17.31;86.01
57821;BME280;43649;49.474;8.466;2022-09-09T00:36:00;99828.09;;;16.98;84.99
57821;BME280;43649;49.474;8.466;2022-09-09T00:38:33;99840.81;;;16.91;85.30
57821;BME280;43649;49.474;8.466;2022-09-09T00:41:04;99895.34;;;17.40;85.75
57821;BME280;43649;49.474;8.466;2022-09-09T00:43:35;99852.59;;;17.05;85.57
57821;BME280;43649;49.474;8.466;2022-09-09T00:46:21;99896.81;;;17.42;85.54
57821;BME280;43649;49.474;8.466;2022-09-09T00:48:57;99819.47;;;16.95;85.25
57821;BME280;43649;49.474;8.466;2022-09-09T00:51:32;99907.06;;;17.40;85.71
57821;BME280;43649;49.474;8.466;2022-09-09T00:54:34;99807.31;;;16.91;86.52
57821;BME280;43649;49.474;8.466;2022-09-09T00:57:28;99815.69;;;16.89;86.52
57821;BME280;43649;49.474;8.466;2022-09-09T01:00:15;99934.22;;;17.62;86.90
57821;BME280;43649;49.474;8.466;2022-09-09T01:02:49;99905.81;;;17.36;87.21
57821;BME280;43649;49.474;8.466;2022-09-09T01:05:27;99926.66;;;17.57;86.62
57821;BME280;43649;49.474;8.466;2022-09-09T01:08:12;99869.66;;;17.21;86.78
57821;BME280;43649;49.474;8.466;2022-09-09T01:10:49;99902.28;;;17.49;86.21
57821;BME280;43649;49.474;8.466;2022-09-09T01:13:30;99851.59;;;17.13;86.17
57821;BME280;43649;49.474;8.466;2022-09-09T01:16:01;99818.50;;;17.09;86.20
57821;BME280;43649;49.474;8.466;2022-09-09T01:18:32;99924.22;;;17.69;85.80
57821;BME280;43649;49.474;8.466;2022-09-09T01:21:04;99934.44;;;17.60;85.28
57821;BME280;43649;49.474;8.466;2022-09-09T01:23:52;99896.94;;;17.27;85.80
57821;BME280;43649;49.474;8.466;2022-09-09T01:26:31;99937.44;;;17.72;85.56
57821;BME280;43649;49.474;8.466;2022-09-09T01:29:02;99918.22;;;17.45;86.33
57821;BME280;43649;49.474;8.466;2022-09-09T01:31:51;99857.91;;;17.13;86.89
57821;BME280;43649;49.474;8.466;2022-09-09T01:34:18;99893.78;;;17.24;88.51
57821;BME280;43649;49.474;8.466;2022-09-09T01:36:51;99834.22;;;16.86;88.25
57821;BME280;43649;49.474;8.466;2022-09-09T01:39:22;99953.13;;;17.35;88.55
57821;BME280;43649;49.474;8.466;2022-09-09T01:41:57;99905.22;;;17.12;89.01
57821;BME280;43649;49.474;8.466;2022-09-09T01:44:26;99931.53;;;17.33;89.15
57821;BME280;43649;49.474;8.466;2022-09-09T01:47:06;99889.06;;;17.04;89.70
57821;BME280;43649;49.474;8.466;2022-09-09T01:49:35;99863.06;;;17.02;89.94
57821;BME280;43649;49.474;8.466;2022-09-09T01:52:10;99909.88;;;17.19;89.42
57821;BME280;43649;49.474;8.466;2022-09-09T01:54:38;99937.69;;;17.42;89.28
57821;BME280;43649;49.474;8.466;2022-09-09T01:57:15;99882.00;;;17.16;88.63
57821;BME280;43649;49.474;8.466;2022-09-09T01:59:54;99883.06;;;17.22;88.29
57821;BME280;43649;49.474;8.466;2022-09-09T02:02:30;99846.03;;;16.93;88.57
57821;BME280;43649;49.474;8.466;2022-09-09T02:05:27;99917.94;;;17.33;88.86
57821;BME280;43649;49.474;8.466;2022-09-09T02:08:10;99914.59;;;17.38;88.62
57821;BME280;43649;49.474;8.466;2022-09-09T02:10:54;99829.59;;;16.79;88.19
57821;BME280;43649;49.474;8.466;2022-09-09T02:13:35;99957.38;;;17.44;88.06
57821;BME280;43649;49.474;8.466;2022-09-09T02:16:08;99919.81;;;17.33;88.59
57821;BME280;43649;49.474;8.466;2022-09-09T02:18:40;99874.38;;;17.05;88.52
57821;BME280;43649;49.474;8.466;2022-09-09T02:21:17;99864.75;;;17.03;87.94
57821;BME280;43649;49.474;8.466;2022-09-09T02:23:49;99880.09;;;17.10;88.22
57821;BME280;43649;49.474;8.466;2022-09-09T02:26:22;99939.59;;;17.48;88.12
57821;BME280;43649;49.474;8.466;2022-09-09T02:32:08;99859.03;;;16.91;87.82
57821;BME280;43649;49.474;8.466;2022-09-09T02:34:44;99874.59;;;17.04;87.58
57821;BME280;43649;49.474;8.466;2022-09-09T02:37:12;99883.53;;;16.97;88.15
57821;BME280;43649;49.474;8.466;2022-09-09T02:39:47;99877.72;;;16.79;88.99
57821;BME280;43649;49.474;8.466;2022-09-09T02:42:20;99858.22;;;16.75;88.81
57821;BME280;43649;49.474;8.466;2022-09-09T02:44:49;99888.16;;;16.97;88.64
57821;BME280;43649;49.474;8.466;2022-09-09T02:47:29;99868.47;;;16.73;88.78
57821;BME280;43649;49.474;8.466;2022-09-09T02:50:10;99899.28;;;17.02;87.92
57821;BME280;43649;49.474;8.466;2022-09-09T02:52:45;99836.84;;;16.72;87.73
57821;BME280;43649;49.474;8.466;2022-09-09T02:55:28;99836.22;;;16.70;88.22
57821;BME280;43649;49.474;8.466;2022-09-09T02:58:03;99851.50;;;16.71;87.65
57821;BME280;43649;49.474;8.466;2022-09-09T03:00:37;99900.00;;;17.17;87.32
57821;BME280;43649;49.474;8.466;2022-09-09T03:03:03;99813.44;;;16.71;86.18
57821;BME280;43649;49.474;8.466;2022-09-09T03:05:44;99834.44;;;16.84;86.49
57821;BME280;43649;49.474;8.466;2022-09-09T03:08:12;99873.75;;;17.03;86.23
57821;BME280;43649;49.474;8.466;2022-09-09T03:10:42;99816.59;;;16.75;86.11
57821;BME280;43649;49.474;8.466;2022-09-09T03:13:17;99925.66;;;17.30;87.18
57821;BME280;43649;49.474;8.466;2022-09-09T03:15:55;99856.28;;;16.69;87.70
57821;BME280;43649;49.474;8.466;2022-09-09T03:18:32;99922.16;;;17.08;88.94
57821;BME280;43649;49.474;8.466;2022-09-09T03:20:58;99917.53;;;17.08;88.62
57821;BME280;43649;49.474;8.466;2022-09-09T03:23:41;99928.22;;;17.10;88.23
57821;BME280;43649;49.474;8.466;2022-09-09T03:26:09;99899.44;;;16.94;88.06
57821;BME280;43649;49.474;8.466;2022-09-09T03:28:43;99890.25;;;16.73;88.19
57821;BME280;43649;49.474;8.466;2022-09-09T03:31:11;99886.91;;;16.78;88.30
57821;BME280;43649;49.474;8.466;2022-09-09T03:33:40;99895.28;;;16.76;89.16
57821;BME280;43649;49.474;8.466;2022-09-09T03:36:09;99890.25;;;16.73;89.18
57821;BME280;43649;49.474;8.466;2022-09-09T03:38:35;99923.97;;;17.01;89.30
57821;BME280;43649;49.474;8.466;2022-09-09T03:41:03;99820.16;;;16.25;88.84
57821;BME280;43649;49.474;8.466;2022-09-09T03:43:29;99933.75;;;16.95;88.60
57821;BME280;43649;49.474;8.466;2022-09-09T03:45:58;99886.75;;;16.58;89.17
57821;BME280;43649;49.474;8.466;2022-09-09T03:48:29;99929.09;;;16.89;88.96
57821;BME280;43649;49.474;8.466;2022-09-09T03:50:58;99904.53;;;16.82;88.77
57821;BME280;43649;49.474;8.466;2022-09-09T03:53:24;99925.88;;;17.00;88.19
57821;BME280;43649;49.474;8.466;2022-09-09T03:55:54;99853.72;;;16.39;87.29
57821;BME280;43649;49.474;8.466;2022-09-09T03:58:20;99851.00;;;16.39;87.99
57821;BME280;43649;49.474;8.466;2022-09-09T04:00:53;99899.44;;;16.72;88.63
57821;BME280;43649;49.474;8.466;2022-09-09T04:03:18;99927.09;;;16.76;88.71
57821;BME280;43649;49.474;8.466;2022-09-09T04:05:48;99865.47;;;16.40;88.64
57821;BME280;43649;49.474;8.466;2022-09-09T04:08:13;99875.88;;;16.36;88.91
57821;BME280;43649;49.474;8.466;2022-09-09T04:10:39;99879.78;;;16.49;88.75
57821;BME280;43649;49.474;8.466;2022-09-09T04:13:05;99880.16;;;16.45;88.57
57821;BME280;43649;49.474;8.466;2022-09-09T04:15:31;99876.53;;;16.38;88.59
57821;BME280;43649;49.474;8.466;2022-09-09T04:17:57;99899.59;;;16.42;88.90
57821;BME280;43649;49.474;8.466;2022-09-09T04:20:23;99877.31;;;16.32;88.89
57821;BME280;43649;49.474;8.466;2022-09-09T04:22:51;99863.00;;;16.23;89.22
57821;BME280;43649;49.474;8.466;2022-09-09T04:25:17;99910.34;;;16.51;88.63
57821;BME280;43649;49.474;8.466;2022-09-09T04:27:43;99887.47;;;16.45;89.38
57821;BME280;43649;49.474;8.466;2022-09-09T04:30:09;99911.34;;;16.50;89.50
57821;BME280;43649;49.474;8.466;2022-09-09T04:32:36;99909.22;;;16.45;90.39
57821;BME280;43649;49.474;8.466;2022-09-09T04:35:02;99896.09;;;16.49;88.91
57821;BME280;43649;49.474;8.466;2022-09-09T04:37:29;99922.72;;;16.53;89.41
57821;BME280;43649;49.474;8.466;2022-09-09T04:39:56;99914.47;;;16.68;88.95
57821;BME280;43649;49.474;8.466;2022-09-09T04:42:21;99889.41;;;16.30;88.69
57821;BME280;43649;49.474;8.466;2022-09-09T04:44:49;99856.84;;;16.15;89.34
57821;BME280;43649;49.474;8.466;2022-09-09T04:47:15;99957.09;;;16.61;88.34
57821;BME280;43649;49.474;8.466;2022-09-09T04:49:41;99917.06;;;16.33;89.69
57821;BME280;43649;49.474;8.466;2022-09-09T04:52:07;99949.03;;;16.53;88.72
57821;BME280;43649;49.474;8.466;2022-09-09T04:54:34;99967.00;;;16.69;88.85
57821;BME280;43649;49.474;8.466;2022-09-09T04:57:01;99944.00;;;16.50;88.08
57821;BME280;43649;49.474;8.466;2022-09-09T04:59:26;99910.78;;;16.33;87.76
57821;BME280;43649;49.474;8.466;2022-09-09T05:01:55;99891.69;;;16.26;88.48
57821;BME280;43649;49.474;8.466;2022-09-09T05:04:21;99884.81;;;16.30;88.28
57821;BME280;43649;49.474;8.466;2022-09-09T05:06:47;99923.53;;;16.54;88.71
57821;BME280;43649;49.474;8.466;2022-09-09T05:09:13;99932.09;;;16.51;88.40
57821;BME280;43649;49.474;8.466;2022-09-09T05:11:40;99965.09;;;16.69;88.36
57821;BME280;43649;49.474;8.466;2022-09-09T05:14:29;99970.69;;;16.83;87.49
57821;BME280;43649;49.474;8.466;2022-09-09T05:16:54;99883.66;;;16.18;88.06
57821;BME280;43649;49.474;8.466;2022-09-09T05:19:21;99911.03;;;16.59;87.63
57821;BME280;43649;49.474;8.466;2022-09-09T05:21:48;99932.84;;;16.66;87.31
57821;BME280;43649;49.474;8.466;2022-09-09T05:24:17;99930.53;;;16.63;87.04
57821;BME280;43649;49.474;8.466;2022-09-09T05:26:44;99915.13;;;16.49;86.49
57821;BME280;43649;49.474;8.466;2022-09-09T05:29:13;99893.78;;;16.45;86.56
57821;BME280;43649;49.474;8.466;2022-09-09T05:31:40;99988.84;;;16.97;87.07
57821;BME280;43649;49.474;8.466;2022-09-09T05:34:16;99975.22;;;16.75;87.51
57821;BME280;43649;49.474;8.466;2022-09-09T05:36:41;99958.09;;;16.81;86.25
57821;BME280;43649;49.474;8.466;2022-09-09T05:39:08;99903.19;;;16.50;86.84
57821;BME280;43649;49.474;8.466;2022-09-09T05:41:33;99982.63;;;17.03;86.45
57821;BME280;43649;49.474;8.466;2022-09-09T05:44:01;99929.63;;;16.77;86.37
57821;BME280;43649;49.474;8.466;2022-09-09T05:46:27;99940.00;;;16.67;86.79
57821;BME280;43649;49.474;8.466;2022-09-09T05:48:54;99972.63;;;16.67;87.53
57821;BME280;43649;49.474;8.466;2022-09-09T05:51:27;99994.53;;;16.80;88.21
57821;BME280;43649;49.474;8.466;2022-09-09T05:53:58;100001.59;;;16.75;87.80
57821;BME280;43649;49.474;8.466;2022-09-09T05:56:35;99988.56;;;16.70;88.34
57821;BME280;43649;49.474;8.466;2022-09-09T05:59:02;100005.03;;;16.84;88.72
57821;BME280;43649;49.474;8.466;2022-09-09T06:01:37;100010.00;;;16.80;87.88
57821;BME280;43649;49.474;8.466;2022-09-09T06:04:06;100023.53;;;16.73;89.23
57821;BME280;43649;49.474;8.466;2022-09-09T06:06:36;99998.66;;;16.55;88.63
57821;BME280;43649;49.474;8.466;2022-09-09T06:09:10;100008.69;;;16.54;88.46
57821;BME280;43649;49.474;8.466;2022-09-09T06:11:39;100013.69;;;16.72;88.95
57821;BME280;43649;49.474;8.466;2022-09-09T06:14:09;99987.91;;;16.46;90.10
57821;BME280;43649;49.474;8.466;2022-09-09T06:16:36;100010.38;;;16.77;89.09
57821;BME280;43649;49.474;8.466;2022-09-09T06:19:02;99910.19;;;16.16;88.96
57821;BME280;43649;49.474;8.466;2022-09-09T06:21:33;100007.41;;;16.87;88.47
57821;BME280;43649;49.474;8.466;2022-09-09T06:24:01;99996.31;;;16.88;87.96
57821;BME280;43649;49.474;8.466;2022-09-09T06:26:28;100004.94;;;16.77;87.79
57821;BME280;43649;49.474;8.466;2022-09-09T06:28:56;100003.09;;;16.77;88.72
57821;BME280;43649;49.474;8.466;2022-09-09T06:31:23;99971.34;;;16.63;88.62
57821;BME280;43649;49.474;8.466;2022-09-09T06:33:51;99994.78;;;16.86;88.62
57821;BME280;43649;49.474;8.466;2022-09-09T06:36:19;99996.97;;;16.75;88.37
57821;BME280;43649;49.474;8.466;2022-09-09T06:38:46;100012.69;;;16.95;88.09
57821;BME280;43649;49.474;8.466;2022-09-09T06:41:14;99983.97;;;16.71;88.04
57821;BME280;43649;49.474;8.466;2022-09-09T06:43:41;100024.91;;;16.84;88.52
57821;BME280;43649;49.474;8.466;2022-09-09T06:46:09;99969.28;;;16.65;88.05
57821;BME280;43649;49.474;8.466;2022-09-09T06:48:35;100008.94;;;16.96;87.87
57821;BME280;43649;49.474;8.466;2022-09-09T06:51:03;99986.63;;;16.86;86.96
57821;BME280;43649;49.474;8.466;2022-09-09T06:53:29;100026.69;;;17.13;86.97
57821;BME280;43649;49.474;8.466;2022-09-09T06:55:56;99972.91;;;16.94;87.25
57821;BME280;43649;49.474;8.466;2022-09-09T06:58:22;100024.31;;;17.32;86.85
57821;BME280;43649;49.474;8.466;2022-09-09T07:00:48;100009.41;;;17.28;86.35
57821;BME280;43649;49.474;8.466;2022-09-09T07:03:13;99999.97;;;17.24;85.52
57821;BME280;43649;49.474;8.466;2022-09-09T07:05:42;100016.41;;;17.37;85.25
57821;BME280;43649;49.474;8.466;2022-09-09T07:08:07;99991.16;;;17.22;85.02
57821;BME280;43649;49.474;8.466;2022-09-09T07:10:33;99986.66;;;17.07;85.33
57821;BME280;43649;49.474;8.466;2022-09-09T07:13:01;100025.44;;;17.38;85.57
57821;BME280;43649;49.474;8.466;2022-09-09T07:15:27;99979.13;;;17.09;85.33
57821;BME280;43649;49.474;8.466;2022-09-09T07:17:53;99980.38;;;17.35;84.30
57821;BME280;43649;49.474;8.466;2022-09-09T07:20:19;100007.22;;;17.73;82.61
57821;BME280;43649;49.474;8.466;2022-09-09T07:22:45;100016.06;;;17.75;83.33
57821;BME280;43649;49.474;8.466;2022-09-09T07:25:10;100003.03;;;17.71;83.22
57821;BME280;43649;49.474;8.466;2022-09-09T07:27:59;100019.63;;;17.82;83.25
57821;BME280;43649;49.474;8.466;2022-09-09T07:30:37;99986.13;;;17.54;83.67
57821;BME280;43649;49.474;8.466;2022-09-09T07:33:11;100029.50;;;17.83;83.28
57821;BME280;43649;49.474;8.466;2022-09-09T07:35:42;99944.31;;;17.33;83.03
57821;BME280;43649;49.474;8.466;2022-09-09T07:38:07;100009.94;;;17.73;83.28
57821;BME280;43649;49.474;8.466;2022-09-09T07:40:33;100030.66;;;17.96;83.39
57821;BME280;43649;49.474;8.466;2022-09-09T07:43:00;99987.63;;;17.56;82.49
57821;BME280;43649;49.474;8.466;2022-09-09T07:45:25;100037.78;;;17.97;82.33
57821;BME280;43649;49.474;8.466;2022-09-09T07:47:52;100013.16;;;17.83;82.40
57821;BME280;43649;49.474;8.466;2022-09-09T07:50:19;100004.97;;;17.83;81.16
57821;BME280;43649;49.474;8.466;2022-09-09T07:52:44;100012.03;;;17.99;80.45
57821;BME280;43649;49.474;8.466;2022-09-09T07:55:10;99995.41;;;17.94;81.14
57821;BME280;43649;49.474;8.466;2022-09-09T07:57:36;99991.25;;;17.98;80.90
57821;BME280;43649;49.474;8.466;2022-09-09T08:00:04;100004.31;;;18.10;80.75
57821;BME280;43649;49.474;8.466;2022-09-09T08:02:37;99997.41;;;18.14;80.55
57821;BME280;43649;49.474;8.466;2022-09-09T08:05:06;100042.78;;;18.35;79.25
57821;BME280;43649;49.474;8.466;2022-09-09T08:07:32;100024.25;;;18.10;80.91
57821;BME280;43649;49.474;8.466;2022-09-09T08:09:57;99982.78;;;17.86;81.34
57821;BME280;43649;49.474;8.466;2022-09-09T08:12:29;100058.06;;;18.22;80.10
57821;BME280;43649;49.474;8.466;2022-09-09T08:14:55;100048.38;;;18.13;80.56
57821;BME280;43649;49.474;8.466;2022-09-09T08:17:21;100020.16;;;17.93;80.89
57821;BME280;43649;49.474;8.466;2022-09-09T08:19:48;100049.47;;;18.26;80.87
57821;BME280;43649;49.474;8.466;2022-09-09T08:22:20;100029.19;;;17.93;82.04
57821;BME280;43649;49.474;8.466;2022-09-09T08:24:45;100022.94;;;17.99;81.86
57821;BME280;43649;49.474;8.466;2022-09-09T08:27:11;100052.03;;;18.34;81.67
57821;BME280;43649;49.474;8.466;2022-09-09T08:29:38;99982.88;;;18.00;80.20
57821;BME280;43649;49.474;8.466;2022-09-09T08:32:05;99983.88;;;17.92;81.03
57821;BME280;43649;49.474;8.466;2022-09-09T08:34:32;100063.44;;;18.44;81.33
57821;BME280;43649;49.474;8.466;2022-09-09T08:37:02;100067.81;;;18.45;81.23
57821;BME280;43649;49.474;8.466;2022-09-09T08:39:37;100025.78;;;18.26;81.10
57821;BME280;43649;49.474;8.466;2022-09-09T08:42:26;100057.91;;;18.31;81.43
57821;BME280;43649;49.474;8.466;2022-09-09T08:47:44;100065.69;;;18.34;82.11
57821;BME280;43649;49.474;8.466;2022-09-09T08:50:20;100068.41;;;18.34;81.99
57821;BME280;43649;49.474;8.466;2022-09-09T08:52:53;100054.56;;;18.35;81.61
57821;BME280;43649;49.474;8.466;2022-09-09T08:55:29;100066.50;;;18.28;81.00
57821;BME280;43649;49.474;8.466;2022-09-09T08:58:04;100062.28;;;18.32;82.11
57821;BME280;43649;49.474;8.466;2022-09-09T09:00:39;100038.97;;;18.16;81.70
57821;BME280;43649;49.474;8.466;2022-09-09T09:03:12;100026.16;;;18.23;80.67
57821;BME280;43649;49.474;8.466;2022-09-09T09:05:46;100029.09;;;18.21;81.07
57821;BME280;43649;49.474;8.466;2022-09-09T09:08:19;100012.50;;;18.16;79.87
57821;BME280;43649;49.474;8.466;2022-09-09T09:10:50;100021.88;;;18.49;79.76
57821;BME280;43649;49.474;8.466;2022-09-09T09:13:25;100070.97;;;19.04;78.96
57821;BME280;43649;49.474;8.466;2022-09-09T09:16:10;100072.44;;;19.26;78.51
57821;BME280;43649;49.474;8.466;2022-09-09T09:18:38;100018.00;;;18.91;78.07
57821;BME280;43649;49.474;8.466;2022-09-09T09:21:10;99981.75;;;18.29;78.49
57821;BME280;43649;49.474;8.466;2022-09-09T09:23:42;100035.84;;;18.87;78.64
57821;BME280;43649;49.474;8.466;2022-09-09T09:26:11;100023.28;;;19.06;77.03
57821;BME280;43649;49.474;8.466;2022-09-09T09:28:42;100034.19;;;19.00;75.77
57821;BME280;43649;49.474;8.466;2022-09-09T09:31:14;100001.22;;;18.95;74.47
57821;BME280;43649;49.474;8.466;2022-09-09T09:33:47;100056.91;;;19.20;76.35
57821;BME280;43649;49.474;8.466;2022-09-09T09:36:14;100009.63;;;19.06;74.82
57821;BME280;43649;49.474;8.466;2022-09-09T09:38:52;100005.81;;;18.87;76.05
57821;BME280;43649;49.474;8.466;2022-09-09T09:41:30;99990.66;;;18.78;76.84
57821;BME280;43649;49.474;8.466;2022-09-09T09:44:19;100059.81;;;18.99;76.22
57821;BME280;43649;49.474;8.466;2022-09-09T09:46:47;99972.06;;;18.27;76.66
57821;BME280;43649;49.474;8.466;2022-09-09T09:49:13;100049.84;;;18.71;76.61
57821;BME280;43649;49.474;8.466;2022-09-09T09:51:39;100056.34;;;18.63;77.77
57821;BME280;43649;49.474;8.466;2022-09-09T09:54:13;100024.94;;;18.26;79.88
57821;BME280;43649;49.474;8.466;2022-09-09T09:56:42;100082.53;;;18.57;82.58
57821;BME280;43649;49.474;8.466;2022-09-09T09:59:20;100090.16;;;18.20;86.87
57821;BME280;43649;49.474;8.466;2022-09-09T10:01:46;100049.63;;;17.82;88.09
57821;BME280;43649;49.474;8.466;2022-09-09T10:04:17;100049.16;;;17.72;87.69
57821;BME280;43649;49.474;8.466;2022-09-09T10:06:43;100093.81;;;17.99;88.97
57821;BME280;43649;49.474;8.466;2022-09-09T10:09:21;100086.88;;;17.97;85.83
57821;BME280;43649;49.474;8.466;2022-09-09T10:11:53;100040.97;;;17.72;86.18
57821;BME280;43649;49.474;8.466;2022-09-09T10:14:23;100038.25;;;17.72;88.93
57821;BME280;43649;49.474;8.466;2022-09-09T10:17:01;100065.09;;;18.03;87.82
57821;BME280;43649;49.474;8.466;2022-09-09T10:20:15;100071.81;;;18.01;89.11
57821;BME280;43649;49.474;8.466;2022-09-09T10:22:47;100045.16;;;18.03;86.52
57821;BME280;43649;49.474;8.466;2022-09-09T10:25:22;100016.22;;;18.02;86.93
57821;BME280;43649;49.474;8.466;2022-09-09T10:28:09;100008.91;;;18.02;87.54
57821;BME280;43649;49.474;8.466;2022-09-09T10:30:46;100055.66;;;18.48;87.53
57821;BME280;43649;49.474;8.466;2022-09-09T10:33:20;100023.50;;;18.30;86.97
57821;BME280;43649;49.474;8.466;2022-09-09T10:36:02;100024.16;;;18.45;87.99
57821;BME280;43649;49.474;8.466;2022-09-09T10:38:38;100047.53;;;18.68;88.22
57821;BME280;43649;49.474;8.466;2022-09-09T10:41:13;100047.38;;;18.76;86.30
57821;BME280;43649;49.474;8.466;2022-09-09T10:44:02;100039.03;;;18.91;86.14
57821;BME280;43649;49.474;8.466;2022-09-09T10:46:40;100043.25;;;19.00;86.08
57821;BME280;43649;49.474;8.466;2022-09-09T10:49:20;100006.22;;;18.84;84.33
57821;BME280;43649;49.474;8.466;2022-09-09T10:51:56;100028.31;;;19.09;83.37
57821;BME280;43649;49.474;8.466;2022-09-09T10:54:33;100029.38;;;19.35;81.48
57821;BME280;43649;49.474;8.466;2022-09-09T10:57:03;100033.59;;;19.38;79.37
57821;BME280;43649;49.474;8.466;2022-09-09T10:59:39;100021.16;;;19.42;80.82
57821;BME280;43649;49.474;8.466;2022-09-09T11:02:13;100015.72;;;19.49;77.42
57821;BME280;43649;49.474;8.466;2022-09-09T11:04:43;100012.16;;;19.35;74.66
57821;BME280;43649;49.474;8.466;2022-09-09T11:07:13;100002.09;;;19.15;74.84
57821;BME280;43649;49.474;8.466;2022-09-09T11:09:47;100018.03;;;19.25;76.40
57821;BME280;43649;49.474;8.466;2022-09-09T11:12:18;99998.91;;;19.12;75.82
57821;BME280;43649;49.474;8.466;2022-09-09T11:14:50;100007.97;;;19.25;75.61
57821;BME280;43649;49.474;8.466;2022-09-09T11:17:22;100026.19;;;19.58;74.47
57821;BME280;43649;49.474;8.466;2022-09-09T11:19:49;100012.31;;;19.73;71.87
57821;BME280;43649;49.474;8.466;2022-09-09T11:22:18;99978.50;;;19.54;70.81
57821;BME280;43649;49.474;8.466;2022-09-09T11:24:51;99999.69;;;19.86;72.27
57821;BME280;43649;49.474;8.466;2022-09-09T11:27:26;100010.59;;;20.06;70.80
57821;BME280;43649;49.474;8.466;2022-09-09T11:30:18;100002.72;;;20.23;69.55
57821;BME280;43649;49.474;8.466;2022-09-09T11:35:56;100002.50;;;20.24;69.40
57821;BME280;43649;49.474;8.466;2022-09-09T11:38:27;99962.00;;;20.01;70.03
57821;BME280;43649;49.474;8.466;2022-09-09T11:40:55;99970.84;;;19.96;69.34
57821;BME280;43649;49.474;8.466;2022-09-09T11:43:24;99977.38;;;19.95;68.88
57821;BME280;43649;49.474;8.466;2022-09-09T11:45:55;99990.00;;;19.96;67.46
57821;BME280;43649;49.474;8.466;2022-09-09T11:48:27;100004.19;;;20.19;66.82
57821;BME280;43649;49.474;8.466;2022-09-09T11:51:00;100001.03;;;20.22;66.13
57821;BME280;43649;49.474;8.466;2022-09-09T11:53:26;100002.94;;;20.28;66.90
57821;BME280;43649;49.474;8.466;2022-09-09T11:56:25;99988.44;;;20.21;66.56
57821;BME280;43649;49.474;8.466;2022-09-09T11:58:57;99984.66;;;20.15;66.19
57821;BME280;43649;49.474;8.466;2022-09-09T12:01:35;100013.22;;;20.32;65.66
57821;BME280;43649;49.474;8.466;2022-09-09T12:04:17;100005.56;;;20.41;65.06
57821;BME280;43649;49.474;8.466;2022-09-09T12:06:45;99990.25;;;20.33;65.65
57821;BME280;43649;49.474;8.466;2022-09-09T12:09:19;99952.72;;;20.02;65.23
57821;BME280;43649;49.474;8.466;2022-09-09T12:11:46;99977.13;;;20.10;66.33
57821;BME280;43649;49.474;8.466;2022-09-09T12:14:20;99979.50;;;19.93;65.67
57821;BME280;43649;49.474;8.466;2022-09-09T12:16:47;100037.06;;;20.12;64.24
57821;BME280;43649;49.474;8.466;2022-09-09T12:19:15;99999.75;;;18.92;61.90
57821;BME280;43649;49.474;8.466;2022-09-09T12:21:46;100030.50;;;18.52;63.75
57821;BME280;43649;49.474;8.466;2022-09-09T12:24:18;100023.63;;;18.15;67.02
57821;BME280;43649;49.474;8.466;2022-09-09T12:26:51;100026.75;;;17.77;71.37
57821;BME280;43649;49.474;8.466;2022-09-09T12:29:24;100017.41;;;17.58;71.67
57821;BME280;43649;49.474;8.466;2022-09-09T12:31:58;100029.09;;;17.51;78.00
57821;BME280;43649;49.474;8.466;2022-09-09T12:34:35;100019.91;;;17.31;79.63
57821;BME280;43649;49.474;8.466;2022-09-09T12:37:08;100018.53;;;17.13;79.12
57821;BME280;43649;49.474;8.466;2022-09-09T12:39:40;100022.41;;;17.26;80.86
57821;BME280;43649;49.474;8.466;2022-09-09T12:42:16;100024.84;;;17.21;78.53
57821;BME280;43649;49.474;8.466;2022-09-09T12:44:50;100021.44;;;17.40;80.47
57821;BME280;43649;49.474;8.466;2022-09-09T12:47:19;100012.13;;;17.49;80.96
57821;BME280;43649;49.474;8.466;2022-09-09T12:49:47;100009.63;;;17.55;80.21
57821;BME280;43649;49.474;8.466;2022-09-09T12:52:18;100008.63;;;17.62;81.75
57821;BME280;43649;49.474;8.466;2022-09-09T12:54:46;100006.50;;;17.58;84.62
57821;BME280;43649;49.474;8.466;2022-09-09T12:57:13;99989.75;;;17.61;87.12
57821;BME280;43649;49.474;8.466;2022-09-09T12:59:40;99995.41;;;17.59;86.61
57821;BME280;43649;49.474;8.466;2022-09-09T13:02:19;99984.50;;;17.59;85.90
57821;BME280;43649;49.474;8.466;2022-09-09T13:04:45;100008.00;;;17.32;90.16
57821;BME280;43649;49.474;8.466;2022-09-09T13:07:11;100010.75;;;17.39;87.38
57821;BME280;43649;49.474;8.466;2022-09-09T13:09:37;100019.16;;;17.15;90.94
57821;BME280;43649;49.474;8.466;2022-09-09T13:12:06;100007.38;;;17.08;91.99
57821;BME280;43649;49.474;8.466;2022-09-09T13:14:36;100017.03;;;17.11;93.44
57821;BME280;43649;49.474;8.466;2022-09-09T13:17:03;100028.75;;;16.68;100.00
57821;BME280;43649;49.474;8.466;2022-09-09T13:19:34;100019.59;;;16.39;100.00
57821;BME280;43649;49.474;8.466;2022-09-09T13:22:11;100017.97;;;16.08;100.00
57821;BME280;43649;49.474;8.466;2022-09-09T13:24:36;100020.53;;;15.80;100.00
57821;BME280;43649;49.474;8.466;2022-09-09T13:27:05;100024.97;;;15.43;100.00